sensor_id;sensor_type;location;lat;lon;timestamp;P1;durP1;ratioP1;P2;durP2;ratioP2
59271;SDS011;45043;51.068;7.026;2023-05-07T00:02:30;7.23;;;4.50;;
59271;SDS011;45043;51.068;7.026;2023-05-07T00:05:32;4.30;;;3.90;;
59271;SDS011;45043;51.068;7.026;2023-05-07T00:08:32;4.20;;;3.60;;
59271;SDS011;45043;51.068;7.026;2023-05-07T00:11:33;4.27;;;3.57;;
59271;SDS011;45043;51.068;7.026;2023-05-07T00:14:33;5.23;;;3.27;;
59271;SDS011;45043;51.068;7.026;2023-05-07T00:17:34;4.37;;;3.43;;
59271;SDS011;45043;51.068;7.026;2023-05-07T00:20:35;5.40;;;3.90;;
59271;SDS011;45043;51.068;7.026;2023-05-07T00:23:35;4.60;;;3.67;;
59271;SDS011;45043;51.068;7.026;2023-05-07T00:26:35;3.97;;;3.60;;
59271;SDS011;45043;51.068;7.026;2023-05-07T00:29:36;3.60;;;3.30;;
59271;SDS011;45043;51.068;7.026;2023-05-07T00:32:36;3.43;;;3.10;;
59271;SDS011;45043;51.068;7.026;2023-05-07T00:35:37;4.00;;;3.60;;
59271;SDS011;45043;51.068;7.026;2023-05-07T00:38:37;3.90;;;3.50;;
59271;SDS011;45043;51.068;7.026;2023-05-07T00:41:38;4.27;;;3.30;;
59271;SDS011;45043;51.068;7.026;2023-05-07T00:44:38;3.17;;;2.87;;
59271;SDS011;45043;51.068;7.026;2023-05-07T00:47:39;5.20;;;3.00;;
59271;SDS011;45043;51.068;7.026;2023-05-07T00:50:41;3.47;;;3.17;;
59271;SDS011;45043;51.068;7.026;2023-05-07T00:53:41;4.00;;;3.20;;
59271;SDS011;45043;51.068;7.026;2023-05-07T00:56:42;4.53;;;2.87;;
59271;SDS011;45043;51.068;7.026;2023-05-07T00:59:42;3.20;;;2.90;;
59271;SDS011;45043;51.068;7.026;2023-05-07T01:02:43;3.50;;;3.20;;
59271;SDS011;45043;51.068;7.026;2023-05-07T01:05:43;3.50;;;3.13;;
59271;SDS011;45043;51.068;7.026;2023-05-07T01:08:46;5.30;;;3.90;;
59271;SDS011;45043;51.068;7.026;2023-05-07T01:11:47;4.00;;;3.00;;
59271;SDS011;45043;51.068;7.026;2023-05-07T01:14:50;4.60;;;3.07;;
59271;SDS011;45043;51.068;7.026;2023-05-07T01:17:51;3.50;;;2.90;;
59271;SDS011;45043;51.068;7.026;2023-05-07T01:20:58;3.80;;;2.70;;
59271;SDS011;45043;51.068;7.026;2023-05-07T01:24:00;4.07;;;3.30;;
59271;SDS011;45043;51.068;7.026;2023-05-07T01:27:02;6.47;;;3.43;;
59271;SDS011;45043;51.068;7.026;2023-05-07T01:30:06;3.53;;;2.70;;
59271;SDS011;45043;51.068;7.026;2023-05-07T01:33:11;4.10;;;2.40;;
59271;SDS011;45043;51.068;7.026;2023-05-07T01:36:15;5.07;;;2.67;;
59271;SDS011;45043;51.068;7.026;2023-05-07T01:39:18;3.47;;;2.43;;
59271;SDS011;45043;51.068;7.026;2023-05-07T01:42:19;4.50;;;2.60;;
59271;SDS011;45043;51.068;7.026;2023-05-07T01:45:19;2.93;;;2.70;;
59271;SDS011;45043;51.068;7.026;2023-05-07T01:48:20;4.33;;;2.33;;
59271;SDS011;45043;51.068;7.026;2023-05-07T01:51:21;2.73;;;2.30;;
59271;SDS011;45043;51.068;7.026;2023-05-07T01:54:25;3.50;;;2.50;;
59271;SDS011;45043;51.068;7.026;2023-05-07T01:57:28;2.40;;;2.20;;
59271;SDS011;45043;51.068;7.026;2023-05-07T02:00:29;2.20;;;2.00;;
59271;SDS011;45043;51.068;7.026;2023-05-07T02:03:29;2.37;;;2.17;;
59271;SDS011;45043;51.068;7.026;2023-05-07T05:16:23;2.87;;;2.50;;
59271;SDS011;45043;51.068;7.026;2023-05-07T05:19:24;8.17;;;3.67;;
59271;SDS011;45043;51.068;7.026;2023-05-07T05:22:25;6.20;;;3.17;;
59271;SDS011;45043;51.068;7.026;2023-05-07T05:25:26;3.37;;;2.90;;
59271;SDS011;45043;51.068;7.026;2023-05-07T05:28:27;5.47;;;2.90;;
59271;SDS011;45043;51.068;7.026;2023-05-07T05:31:28;3.10;;;2.70;;
59271;SDS011;45043;51.068;7.026;2023-05-07T05:34:29;4.10;;;3.00;;
59271;SDS011;45043;51.068;7.026;2023-05-07T05:37:30;3.23;;;2.40;;
59271;SDS011;45043;51.068;7.026;2023-05-07T05:40:32;4.43;;;2.87;;
59271;SDS011;45043;51.068;7.026;2023-05-07T05:43:34;3.90;;;2.23;;
59271;SDS011;45043;51.068;7.026;2023-05-07T05:46:34;5.07;;;2.30;;
59271;SDS011;45043;51.068;7.026;2023-05-07T05:49:35;3.60;;;2.67;;
59271;SDS011;45043;51.068;7.026;2023-05-07T05:52:38;2.87;;;2.37;;
59271;SDS011;45043;51.068;7.026;2023-05-07T05:55:38;2.97;;;2.47;;
59271;SDS011;45043;51.068;7.026;2023-05-07T05:58:39;2.43;;;2.20;;
59271;SDS011;45043;51.068;7.026;2023-05-07T06:01:41;4.10;;;2.70;;
59271;SDS011;45043;51.068;7.026;2023-05-07T06:04:42;2.97;;;2.07;;
59271;SDS011;45043;51.068;7.026;2023-05-07T06:07:44;3.13;;;2.10;;
59271;SDS011;45043;51.068;7.026;2023-05-07T06:10:45;3.97;;;2.20;;
59271;SDS011;45043;51.068;7.026;2023-05-07T06:13:45;3.17;;;2.20;;
59271;SDS011;45043;51.068;7.026;2023-05-07T06:16:46;3.77;;;2.17;;
59271;SDS011;45043;51.068;7.026;2023-05-07T06:19:46;4.47;;;2.73;;
59271;SDS011;45043;51.068;7.026;2023-05-07T06:22:50;4.07;;;2.27;;
59271;SDS011;45043;51.068;7.026;2023-05-07T06:25:51;2.17;;;2.03;;
59271;SDS011;45043;51.068;7.026;2023-05-07T06:28:54;2.90;;;2.17;;
59271;SDS011;45043;51.068;7.026;2023-05-07T06:31:54;3.30;;;2.50;;
59271;SDS011;45043;51.068;7.026;2023-05-07T06:34:56;2.57;;;2.37;;
59271;SDS011;45043;51.068;7.026;2023-05-07T06:37:57;2.57;;;2.00;;
59271;SDS011;45043;51.068;7.026;2023-05-07T06:41:00;3.73;;;2.30;;
59271;SDS011;45043;51.068;7.026;2023-05-07T06:44:01;2.37;;;2.10;;
59271;SDS011;45043;51.068;7.026;2023-05-07T06:47:25;2.47;;;2.20;;
59271;SDS011;45043;51.068;7.026;2023-05-07T06:50:28;4.00;;;2.50;;
59271;SDS011;45043;51.068;7.026;2023-05-07T06:53:31;3.67;;;2.57;;
59271;SDS011;45043;51.068;7.026;2023-05-07T06:56:33;3.57;;;2.33;;
59271;SDS011;45043;51.068;7.026;2023-05-07T06:59:35;2.90;;;2.40;;
59271;SDS011;45043;51.068;7.026;2023-05-07T07:02:36;2.60;;;2.40;;
59271;SDS011;45043;51.068;7.026;2023-05-07T07:05:36;2.63;;;2.43;;
59271;SDS011;45043;51.068;7.026;2023-05-07T07:08:37;2.70;;;2.23;;
59271;SDS011;45043;51.068;7.026;2023-05-07T07:11:39;5.40;;;2.60;;
59271;SDS011;45043;51.068;7.026;2023-05-07T07:14:40;4.50;;;2.40;;
59271;SDS011;45043;51.068;7.026;2023-05-07T07:17:41;2.70;;;2.50;;
59271;SDS011;45043;51.068;7.026;2023-05-07T07:20:41;2.90;;;2.60;;
59271;SDS011;45043;51.068;7.026;2023-05-07T07:23:42;2.43;;;2.23;;
59271;SDS011;45043;51.068;7.026;2023-05-07T07:26:43;3.73;;;2.20;;
59271;SDS011;45043;51.068;7.026;2023-05-07T07:29:43;2.70;;;2.20;;
59271;SDS011;45043;51.068;7.026;2023-05-07T07:32:45;2.93;;;2.07;;
59271;SDS011;45043;51.068;7.026;2023-05-07T07:35:45;3.50;;;2.60;;
59271;SDS011;45043;51.068;7.026;2023-05-07T07:38:46;2.53;;;2.30;;
59271;SDS011;45043;51.068;7.026;2023-05-07T07:41:46;3.50;;;2.90;;
59271;SDS011;45043;51.068;7.026;2023-05-07T07:44:48;2.60;;;2.40;;
59271;SDS011;45043;51.068;7.026;2023-05-07T07:47:52;2.33;;;2.13;;
59271;SDS011;45043;51.068;7.026;2023-05-07T07:50:53;2.53;;;2.33;;
59271;SDS011;45043;51.068;7.026;2023-05-07T07:53:55;2.53;;;2.37;;
59271;SDS011;45043;51.068;7.026;2023-05-07T07:56:58;3.07;;;2.50;;
59271;SDS011;45043;51.068;7.026;2023-05-07T07:59:59;2.87;;;2.50;;
59271;SDS011;45043;51.068;7.026;2023-05-07T08:02:59;3.50;;;2.27;;
59271;SDS011;45043;51.068;7.026;2023-05-07T08:06:05;5.30;;;2.50;;
59271;SDS011;45043;51.068;7.026;2023-05-07T08:09:07;3.27;;;2.07;;
59271;SDS011;45043;51.068;7.026;2023-05-07T08:12:08;2.47;;;2.27;;
59271;SDS011;45043;51.068;7.026;2023-05-07T08:15:09;2.60;;;2.30;;
59271;SDS011;45043;51.068;7.026;2023-05-07T08:18:10;23.30;;;18.90;;
59271;SDS011;45043;51.068;7.026;2023-05-07T08:21:11;10.03;;;6.90;;
59271;SDS011;45043;51.068;7.026;2023-05-07T08:24:16;8.80;;;7.77;;
59271;SDS011;45043;51.068;7.026;2023-05-07T08:27:17;18.50;;;13.60;;
59271;SDS011;45043;51.068;7.026;2023-05-07T08:30:17;10.47;;;3.60;;
59271;SDS011;45043;51.068;7.026;2023-05-07T08:33:18;6.10;;;5.50;;
59271;SDS011;45043;51.068;7.026;2023-05-07T08:36:19;11.10;;;8.63;;
59271;SDS011;45043;51.068;7.026;2023-05-07T08:39:19;6.40;;;4.63;;
59271;SDS011;45043;51.068;7.026;2023-05-07T08:42:23;6.83;;;4.83;;
59271;SDS011;45043;51.068;7.026;2023-05-07T08:45:25;12.80;;;10.90;;
59271;SDS011;45043;51.068;7.026;2023-05-07T08:48:26;6.90;;;5.10;;
59271;SDS011;45043;51.068;7.026;2023-05-07T08:51:49;10.77;;;9.17;;
59271;SDS011;45043;51.068;7.026;2023-05-07T08:54:50;9.23;;;7.10;;
59271;SDS011;45043;51.068;7.026;2023-05-07T08:57:50;12.43;;;9.03;;
59271;SDS011;45043;51.068;7.026;2023-05-07T09:00:53;4.90;;;4.43;;
59271;SDS011;45043;51.068;7.026;2023-05-07T09:03:55;12.30;;;9.50;;
59271;SDS011;45043;51.068;7.026;2023-05-07T09:06:59;8.93;;;6.93;;
59271;SDS011;45043;51.068;7.026;2023-05-07T09:10:06;4.33;;;3.93;;
59271;SDS011;45043;51.068;7.026;2023-05-07T09:13:09;5.57;;;4.73;;
59271;SDS011;45043;51.068;7.026;2023-05-07T09:16:15;8.70;;;4.10;;
59271;SDS011;45043;51.068;7.026;2023-05-07T09:19:22;8.83;;;6.30;;
59271;SDS011;45043;51.068;7.026;2023-05-07T09:22:24;11.90;;;10.20;;
59271;SDS011;45043;51.068;7.026;2023-05-07T09:25:34;11.60;;;9.57;;
59271;SDS011;45043;51.068;7.026;2023-05-07T09:28:42;8.53;;;6.03;;
59271;SDS011;45043;51.068;7.026;2023-05-07T09:31:45;7.83;;;5.43;;
59271;SDS011;45043;51.068;7.026;2023-05-07T09:34:48;6.27;;;4.27;;
59271;SDS011;45043;51.068;7.026;2023-05-07T09:37:56;5.27;;;4.07;;
59271;SDS011;45043;51.068;7.026;2023-05-07T09:41:01;5.40;;;4.67;;
59271;SDS011;45043;51.068;7.026;2023-05-07T09:44:20;8.53;;;6.90;;
59271;SDS011;45043;51.068;7.026;2023-05-07T09:47:24;7.33;;;4.70;;
59271;SDS011;45043;51.068;7.026;2023-05-07T09:50:27;6.17;;;4.50;;
59271;SDS011;45043;51.068;7.026;2023-05-07T09:53:29;7.17;;;5.60;;
59271;SDS011;45043;51.068;7.026;2023-05-07T09:56:32;7.50;;;5.27;;
59271;SDS011;45043;51.068;7.026;2023-05-07T09:59:33;6.27;;;5.10;;
59271;SDS011;45043;51.068;7.026;2023-05-07T10:02:39;5.53;;;4.33;;
59271;SDS011;45043;51.068;7.026;2023-05-07T10:05:46;5.13;;;4.47;;
59271;SDS011;45043;51.068;7.026;2023-05-07T10:08:48;4.53;;;3.30;;
59271;SDS011;45043;51.068;7.026;2023-05-07T10:11:50;5.50;;;4.73;;
59271;SDS011;45043;51.068;7.026;2023-05-07T10:14:51;6.70;;;5.93;;
59271;SDS011;45043;51.068;7.026;2023-05-07T10:17:55;4.17;;;3.77;;
59271;SDS011;45043;51.068;7.026;2023-05-07T10:20:58;6.57;;;5.50;;
59271;SDS011;45043;51.068;7.026;2023-05-07T10:24:20;6.20;;;4.50;;
59271;SDS011;45043;51.068;7.026;2023-05-07T10:27:25;6.10;;;3.67;;
59271;SDS011;45043;51.068;7.026;2023-05-07T10:33:38;4.27;;;3.87;;
59271;SDS011;45043;51.068;7.026;2023-05-07T10:36:45;6.73;;;6.03;;
59271;SDS011;45043;51.068;7.026;2023-05-07T10:39:47;6.07;;;4.80;;
59271;SDS011;45043;51.068;7.026;2023-05-07T10:42:55;9.53;;;7.93;;
59271;SDS011;45043;51.068;7.026;2023-05-07T10:46:09;7.83;;;6.13;;
59271;SDS011;45043;51.068;7.026;2023-05-07T10:49:09;4.43;;;3.93;;
59271;SDS011;45043;51.068;7.026;2023-05-07T10:52:25;8.67;;;7.03;;
59271;SDS011;45043;51.068;7.026;2023-05-07T10:55:47;8.53;;;3.23;;
59271;SDS011;45043;51.068;7.026;2023-05-07T10:58:56;2.67;;;2.47;;
59271;SDS011;45043;51.068;7.026;2023-05-07T11:06:19;6.53;;;5.43;;
59271;SDS011;45043;51.068;7.026;2023-05-07T11:09:23;3.67;;;2.93;;
59271;SDS011;45043;51.068;7.026;2023-05-07T11:15:41;5.87;;;4.30;;
59271;SDS011;45043;51.068;7.026;2023-05-07T11:18:51;7.10;;;4.40;;
59271;SDS011;45043;51.068;7.026;2023-05-07T11:22:01;2.67;;;2.47;;
59271;SDS011;45043;51.068;7.026;2023-05-07T11:25:19;2.77;;;2.47;;
59271;SDS011;45043;51.068;7.026;2023-05-07T11:28:21;3.30;;;3.00;;
59271;SDS011;45043;51.068;7.026;2023-05-07T11:31:30;7.97;;;3.60;;
59271;SDS011;45043;51.068;7.026;2023-05-07T11:34:34;4.20;;;3.23;;
59271;SDS011;45043;51.068;7.026;2023-05-07T11:37:36;2.77;;;2.43;;
59271;SDS011;45043;51.068;7.026;2023-05-07T11:40:49;2.90;;;2.10;;
59271;SDS011;45043;51.068;7.026;2023-05-07T11:43:54;5.03;;;3.07;;
59271;SDS011;45043;51.068;7.026;2023-05-07T11:46:58;3.13;;;2.00;;
59271;SDS011;45043;51.068;7.026;2023-05-07T11:50:03;2.50;;;2.30;;
59271;SDS011;45043;51.068;7.026;2023-05-07T11:53:08;2.73;;;1.90;;
59271;SDS011;45043;51.068;7.026;2023-05-07T11:56:09;3.57;;;2.10;;
59271;SDS011;45043;51.068;7.026;2023-05-07T11:59:10;2.87;;;2.20;;
59271;SDS011;45043;51.068;7.026;2023-05-07T12:02:11;3.67;;;2.53;;
59271;SDS011;45043;51.068;7.026;2023-05-07T12:05:17;4.87;;;2.20;;
59271;SDS011;45043;51.068;7.026;2023-05-07T12:08:18;2.80;;;1.90;;
59271;SDS011;45043;51.068;7.026;2023-05-07T12:11:23;2.10;;;1.90;;
59271;SDS011;45043;51.068;7.026;2023-05-07T12:14:27;2.23;;;2.03;;
59271;SDS011;45043;51.068;7.026;2023-05-07T12:17:29;3.73;;;2.37;;
59271;SDS011;45043;51.068;7.026;2023-05-07T12:20:29;2.37;;;2.00;;
59271;SDS011;45043;51.068;7.026;2023-05-07T12:23:30;2.83;;;2.20;;
59271;SDS011;45043;51.068;7.026;2023-05-07T12:26:30;2.40;;;2.20;;
59271;SDS011;45043;51.068;7.026;2023-05-07T12:29:31;2.20;;;2.00;;
59271;SDS011;45043;51.068;7.026;2023-05-07T12:32:31;2.43;;;2.23;;
59271;SDS011;45043;51.068;7.026;2023-05-07T12:35:37;6.87;;;2.40;;
59271;SDS011;45043;51.068;7.026;2023-05-07T12:38:41;3.87;;;1.90;;
59271;SDS011;45043;51.068;7.026;2023-05-07T12:41:57;2.40;;;2.20;;
59271;SDS011;45043;51.068;7.026;2023-05-07T12:44:59;3.10;;;2.30;;
59271;SDS011;45043;51.068;7.026;2023-05-07T12:48:03;2.60;;;2.00;;
59271;SDS011;45043;51.068;7.026;2023-05-07T12:51:06;2.30;;;2.10;;
59271;SDS011;45043;51.068;7.026;2023-05-07T12:54:09;2.20;;;2.00;;
59271;SDS011;45043;51.068;7.026;2023-05-07T12:57:09;3.40;;;2.40;;
59271;SDS011;45043;51.068;7.026;2023-05-07T13:00:10;2.40;;;2.20;;
59271;SDS011;45043;51.068;7.026;2023-05-07T13:03:11;4.70;;;3.67;;
59271;SDS011;45043;51.068;7.026;2023-05-07T13:06:12;2.00;;;1.90;;
59271;SDS011;45043;51.068;7.026;2023-05-07T13:09:13;3.30;;;2.20;;
59271;SDS011;45043;51.068;7.026;2023-05-07T13:12:13;3.30;;;2.03;;
59271;SDS011;45043;51.068;7.026;2023-05-07T13:15:13;2.87;;;2.40;;
59271;SDS011;45043;51.068;7.026;2023-05-07T13:18:14;2.50;;;2.30;;
59271;SDS011;45043;51.068;7.026;2023-05-07T13:21:14;3.37;;;2.83;;
59271;SDS011;45043;51.068;7.026;2023-05-07T13:24:15;2.33;;;2.13;;
59271;SDS011;45043;51.068;7.026;2023-05-07T13:27:15;2.70;;;2.40;;
59271;SDS011;45043;51.068;7.026;2023-05-07T13:30:16;4.30;;;3.00;;
59271;SDS011;45043;51.068;7.026;2023-05-07T13:33:16;2.33;;;2.13;;
59271;SDS011;45043;51.068;7.026;2023-05-07T13:36:17;2.67;;;2.47;;
59271;SDS011;45043;51.068;7.026;2023-05-07T13:39:17;2.70;;;2.10;;
59271;SDS011;45043;51.068;7.026;2023-05-07T13:42:17;2.00;;;1.90;;
59271;SDS011;45043;51.068;7.026;2023-05-07T13:45:18;2.83;;;2.17;;
59271;SDS011;45043;51.068;7.026;2023-05-07T13:48:18;3.30;;;2.23;;
59271;SDS011;45043;51.068;7.026;2023-05-07T13:51:19;2.90;;;2.70;;
59271;SDS011;45043;51.068;7.026;2023-05-07T13:54:19;3.30;;;2.53;;
59271;SDS011;45043;51.068;7.026;2023-05-07T13:57:19;2.87;;;2.20;;
59271;SDS011;45043;51.068;7.026;2023-05-07T14:00:20;2.57;;;2.10;;
59271;SDS011;45043;51.068;7.026;2023-05-07T14:03:20;2.50;;;2.30;;
59271;SDS011;45043;51.068;7.026;2023-05-07T14:06:21;2.97;;;2.23;;
59271;SDS011;45043;51.068;7.026;2023-05-07T14:09:22;2.67;;;2.40;;
59271;SDS011;45043;51.068;7.026;2023-05-07T14:12:23;2.50;;;2.30;;
59271;SDS011;45043;51.068;7.026;2023-05-07T14:15:24;2.73;;;2.53;;
59271;SDS011;45043;51.068;7.026;2023-05-07T14:18:24;2.63;;;2.43;;
59271;SDS011;45043;51.068;7.026;2023-05-07T14:21:25;3.17;;;2.33;;
59271;SDS011;45043;51.068;7.026;2023-05-07T14:24:25;4.60;;;2.23;;
59271;SDS011;45043;51.068;7.026;2023-05-07T14:27:26;4.00;;;2.60;;
59271;SDS011;45043;51.068;7.026;2023-05-07T14:30:27;4.73;;;3.70;;
59271;SDS011;45043;51.068;7.026;2023-05-07T14:33:27;4.40;;;3.63;;
59271;SDS011;45043;51.068;7.026;2023-05-07T14:36:28;3.33;;;2.77;;
59271;SDS011;45043;51.068;7.026;2023-05-07T14:39:30;2.57;;;2.37;;
59271;SDS011;45043;51.068;7.026;2023-05-07T14:42:30;3.23;;;2.90;;
59271;SDS011;45043;51.068;7.026;2023-05-07T14:45:31;3.70;;;3.30;;
59271;SDS011;45043;51.068;7.026;2023-05-07T14:48:31;8.53;;;3.90;;
59271;SDS011;45043;51.068;7.026;2023-05-07T14:51:32;3.90;;;3.30;;
59271;SDS011;45043;51.068;7.026;2023-05-07T14:54:33;3.80;;;3.13;;
59271;SDS011;45043;51.068;7.026;2023-05-07T14:57:35;4.10;;;3.07;;
59271;SDS011;45043;51.068;7.026;2023-05-07T15:00:36;3.70;;;3.33;;
59271;SDS011;45043;51.068;7.026;2023-05-07T15:03:36;3.90;;;3.40;;
59271;SDS011;45043;51.068;7.026;2023-05-07T15:06:36;3.87;;;3.57;;
59271;SDS011;45043;51.068;7.026;2023-05-07T15:09:37;3.67;;;3.27;;
59271;SDS011;45043;51.068;7.026;2023-05-07T15:12:38;3.43;;;3.13;;
59271;SDS011;45043;51.068;7.026;2023-05-07T15:15:38;4.37;;;3.60;;
59271;SDS011;45043;51.068;7.026;2023-05-07T15:18:39;4.47;;;4.07;;
59271;SDS011;45043;51.068;7.026;2023-05-07T15:21:40;4.93;;;3.73;;
59271;SDS011;45043;51.068;7.026;2023-05-07T15:24:40;4.10;;;3.70;;
59271;SDS011;45043;51.068;7.026;2023-05-07T15:27:41;5.07;;;3.87;;
59271;SDS011;45043;51.068;7.026;2023-05-07T15:30:41;4.07;;;3.67;;
59271;SDS011;45043;51.068;7.026;2023-05-07T15:33:42;5.80;;;3.87;;
59271;SDS011;45043;51.068;7.026;2023-05-07T15:36:42;4.57;;;3.97;;
59271;SDS011;45043;51.068;7.026;2023-05-07T15:39:42;5.77;;;4.73;;
59271;SDS011;45043;51.068;7.026;2023-05-07T15:42:44;5.17;;;4.40;;
59271;SDS011;45043;51.068;7.026;2023-05-07T15:45:45;5.73;;;4.70;;
59271;SDS011;45043;51.068;7.026;2023-05-07T15:48:45;5.67;;;4.50;;
59271;SDS011;45043;51.068;7.026;2023-05-07T15:51:46;4.83;;;4.03;;
59271;SDS011;45043;51.068;7.026;2023-05-07T15:54:47;4.73;;;3.83;;
59271;SDS011;45043;51.068;7.026;2023-05-07T15:57:47;4.80;;;4.00;;
59271;SDS011;45043;51.068;7.026;2023-05-07T16:00:48;4.93;;;3.70;;
59271;SDS011;45043;51.068;7.026;2023-05-07T16:03:48;4.53;;;4.13;;
59271;SDS011;45043;51.068;7.026;2023-05-07T16:06:48;4.10;;;3.70;;
59271;SDS011;45043;51.068;7.026;2023-05-07T16:09:49;5.60;;;4.97;;
59271;SDS011;45043;51.068;7.026;2023-05-07T16:12:50;6.33;;;5.10;;
59271;SDS011;45043;51.068;7.026;2023-05-07T16:15:56;7.67;;;4.20;;
59271;SDS011;45043;51.068;7.026;2023-05-07T16:18:57;5.00;;;4.13;;
59271;SDS011;45043;51.068;7.026;2023-05-07T16:21:58;4.30;;;3.90;;
59271;SDS011;45043;51.068;7.026;2023-05-07T16:24:58;4.40;;;4.00;;
59271;SDS011;45043;51.068;7.026;2023-05-07T16:27:59;3.60;;;3.30;;
59271;SDS011;45043;51.068;7.026;2023-05-07T16:30:59;4.17;;;3.70;;
59271;SDS011;45043;51.068;7.026;2023-05-07T16:34:00;4.27;;;3.73;;
59271;SDS011;45043;51.068;7.026;2023-05-07T16:37:01;4.47;;;3.40;;
59271;SDS011;45043;51.068;7.026;2023-05-07T16:40:02;4.53;;;4.13;;
59271;SDS011;45043;51.068;7.026;2023-05-07T16:43:06;4.27;;;3.50;;
59271;SDS011;45043;51.068;7.026;2023-05-07T16:46:07;5.50;;;4.60;;
59271;SDS011;45043;51.068;7.026;2023-05-07T16:49:07;4.33;;;3.80;;
59271;SDS011;45043;51.068;7.026;2023-05-07T16:52:07;3.57;;;3.27;;
59271;SDS011;45043;51.068;7.026;2023-05-07T16:55:08;3.37;;;3.07;;
59271;SDS011;45043;51.068;7.026;2023-05-07T16:58:10;3.30;;;3.00;;
59271;SDS011;45043;51.068;7.026;2023-05-07T17:01:11;3.33;;;3.03;;
59271;SDS011;45043;51.068;7.026;2023-05-07T17:04:11;3.20;;;2.97;;
59271;SDS011;45043;51.068;7.026;2023-05-07T17:07:13;3.30;;;3.00;;
59271;SDS011;45043;51.068;7.026;2023-05-07T17:10:14;3.13;;;2.90;;
59271;SDS011;45043;51.068;7.026;2023-05-07T17:13:14;2.80;;;2.60;;
59271;SDS011;45043;51.068;7.026;2023-05-07T17:16:14;3.40;;;3.10;;
59271;SDS011;45043;51.068;7.026;2023-05-07T17:19:15;4.43;;;2.87;;
59271;SDS011;45043;51.068;7.026;2023-05-07T17:22:15;3.90;;;3.00;;
59271;SDS011;45043;51.068;7.026;2023-05-07T17:25:16;3.17;;;2.83;;
59271;SDS011;45043;51.068;7.026;2023-05-07T17:28:17;3.20;;;3.00;;
59271;SDS011;45043;51.068;7.026;2023-05-07T17:31:17;4.20;;;3.80;;
59271;SDS011;45043;51.068;7.026;2023-05-07T17:34:17;3.70;;;3.20;;
59271;SDS011;45043;51.068;7.026;2023-05-07T17:37:18;3.50;;;3.20;;
59271;SDS011;45043;51.068;7.026;2023-05-07T17:40:19;4.87;;;3.47;;
59271;SDS011;45043;51.068;7.026;2023-05-07T17:43:21;3.97;;;3.57;;
59271;SDS011;45043;51.068;7.026;2023-05-07T17:46:24;4.00;;;3.50;;
59271;SDS011;45043;51.068;7.026;2023-05-07T17:49:24;4.67;;;3.80;;
59271;SDS011;45043;51.068;7.026;2023-05-07T17:52:25;4.57;;;3.83;;
59271;SDS011;45043;51.068;7.026;2023-05-07T17:55:25;4.23;;;3.83;;
59271;SDS011;45043;51.068;7.026;2023-05-07T17:58:26;3.90;;;3.50;;
59271;SDS011;45043;51.068;7.026;2023-05-07T18:01:26;4.17;;;3.77;;
59271;SDS011;45043;51.068;7.026;2023-05-07T18:04:27;4.90;;;3.90;;
59271;SDS011;45043;51.068;7.026;2023-05-07T18:07:28;27.77;;;24.53;;
59271;SDS011;45043;51.068;7.026;2023-05-07T18:10:28;29.07;;;25.57;;
59271;SDS011;45043;51.068;7.026;2023-05-07T18:13:29;17.47;;;15.67;;
59271;SDS011;45043;51.068;7.026;2023-05-07T18:16:29;10.60;;;9.50;;
59271;SDS011;45043;51.068;7.026;2023-05-07T18:19:30;6.77;;;5.87;;
59271;SDS011;45043;51.068;7.026;2023-05-07T18:22:30;5.20;;;4.70;;
59271;SDS011;45043;51.068;7.026;2023-05-07T18:25:31;6.17;;;4.10;;
59271;SDS011;45043;51.068;7.026;2023-05-07T18:28:31;4.57;;;4.17;;
59271;SDS011;45043;51.068;7.026;2023-05-07T18:31:32;5.13;;;4.13;;
59271;SDS011;45043;51.068;7.026;2023-05-07T18:34:32;4.40;;;3.90;;
59271;SDS011;45043;51.068;7.026;2023-05-07T18:37:33;5.20;;;4.43;;
59271;SDS011;45043;51.068;7.026;2023-05-07T18:40:33;7.80;;;6.00;;
59271;SDS011;45043;51.068;7.026;2023-05-07T18:43:34;6.40;;;4.97;;
59271;SDS011;45043;51.068;7.026;2023-05-07T18:46:34;5.27;;;4.23;;
59271;SDS011;45043;51.068;7.026;2023-05-07T18:49:35;5.37;;;4.07;;
59271;SDS011;45043;51.068;7.026;2023-05-07T18:52:36;5.13;;;4.63;;
59271;SDS011;45043;51.068;7.026;2023-05-07T18:55:40;6.90;;;4.57;;
59271;SDS011;45043;51.068;7.026;2023-05-07T18:58:40;4.83;;;4.40;;
59271;SDS011;45043;51.068;7.026;2023-05-07T19:01:41;6.03;;;4.90;;
59271;SDS011;45043;51.068;7.026;2023-05-07T19:04:41;5.17;;;4.70;;
59271;SDS011;45043;51.068;7.026;2023-05-07T19:07:42;4.77;;;4.37;;
59271;SDS011;45043;51.068;7.026;2023-05-07T19:10:42;4.30;;;3.90;;
59271;SDS011;45043;51.068;7.026;2023-05-07T19:13:44;6.13;;;4.20;;
59271;SDS011;45043;51.068;7.026;2023-05-07T19:16:44;4.77;;;4.27;;
59271;SDS011;45043;51.068;7.026;2023-05-07T19:19:44;6.13;;;4.40;;
59271;SDS011;45043;51.068;7.026;2023-05-07T19:22:48;5.47;;;5.03;;
59271;SDS011;45043;51.068;7.026;2023-05-07T19:25:48;5.43;;;4.70;;
59271;SDS011;45043;51.068;7.026;2023-05-07T19:28:48;6.13;;;4.97;;
59271;SDS011;45043;51.068;7.026;2023-05-07T19:31:50;6.00;;;5.20;;
59271;SDS011;45043;51.068;7.026;2023-05-07T19:34:51;5.27;;;4.77;;
59271;SDS011;45043;51.068;7.026;2023-05-07T19:37:51;5.07;;;4.60;;
59271;SDS011;45043;51.068;7.026;2023-05-07T19:40:53;5.53;;;4.80;;
59271;SDS011;45043;51.068;7.026;2023-05-07T19:43:54;5.87;;;5.37;;
59271;SDS011;45043;51.068;7.026;2023-05-07T19:46:54;5.43;;;4.57;;
59271;SDS011;45043;51.068;7.026;2023-05-07T19:49:54;4.90;;;4.50;;
59271;SDS011;45043;51.068;7.026;2023-05-07T19:52:55;4.87;;;4.20;;
59271;SDS011;45043;51.068;7.026;2023-05-07T19:56:02;6.00;;;4.37;;
59271;SDS011;45043;51.068;7.026;2023-05-07T19:59:06;5.23;;;4.73;;
59271;SDS011;45043;51.068;7.026;2023-05-07T20:02:07;6.57;;;4.50;;
59271;SDS011;45043;51.068;7.026;2023-05-07T20:05:08;4.93;;;4.53;;
59271;SDS011;45043;51.068;7.026;2023-05-07T20:08:10;5.13;;;4.63;;
59271;SDS011;45043;51.068;7.026;2023-05-07T20:11:10;5.80;;;5.20;;
59271;SDS011;45043;51.068;7.026;2023-05-07T20:14:12;6.53;;;5.50;;
59271;SDS011;45043;51.068;7.026;2023-05-07T20:17:12;5.53;;;5.03;;
59271;SDS011;45043;51.068;7.026;2023-05-07T20:20:13;7.43;;;5.97;;
59271;SDS011;45043;51.068;7.026;2023-05-07T20:23:13;6.67;;;5.30;;
59271;SDS011;45043;51.068;7.026;2023-05-07T20:26:13;5.60;;;5.03;;
59271;SDS011;45043;51.068;7.026;2023-05-07T20:29:14;7.83;;;5.43;;
59271;SDS011;45043;51.068;7.026;2023-05-07T20:32:14;6.27;;;5.67;;
59271;SDS011;45043;51.068;7.026;2023-05-07T20:35:15;6.10;;;5.60;;
59271;SDS011;45043;51.068;7.026;2023-05-07T20:38:15;7.10;;;5.20;;
59271;SDS011;45043;51.068;7.026;2023-05-07T20:41:16;6.00;;;5.50;;
59271;SDS011;45043;51.068;7.026;2023-05-07T20:44:17;7.27;;;5.67;;
59271;SDS011;45043;51.068;7.026;2023-05-07T20:47:18;6.40;;;5.47;;
59271;SDS011;45043;51.068;7.026;2023-05-07T20:50:20;7.00;;;5.80;;
59271;SDS011;45043;51.068;7.026;2023-05-07T20:53:22;9.47;;;6.50;;
59271;SDS011;45043;51.068;7.026;2023-05-07T20:56:23;8.93;;;6.20;;
59271;SDS011;45043;51.068;7.026;2023-05-07T20:59:23;7.10;;;6.40;;
59271;SDS011;45043;51.068;7.026;2023-05-07T21:02:24;7.20;;;5.90;;
59271;SDS011;45043;51.068;7.026;2023-05-07T21:05:24;7.67;;;6.00;;
59271;SDS011;45043;51.068;7.026;2023-05-07T21:08:25;7.83;;;6.27;;
59271;SDS011;45043;51.068;7.026;2023-05-07T21:11:26;8.67;;;5.80;;
59271;SDS011;45043;51.068;7.026;2023-05-07T21:14:27;7.93;;;6.27;;
59271;SDS011;45043;51.068;7.026;2023-05-07T21:17:27;6.43;;;5.73;;
59271;SDS011;45043;51.068;7.026;2023-05-07T21:20:30;6.07;;;5.50;;
59271;SDS011;45043;51.068;7.026;2023-05-07T21:23:31;6.23;;;5.63;;
59271;SDS011;45043;51.068;7.026;2023-05-07T21:26:31;6.20;;;5.23;;
59271;SDS011;45043;51.068;7.026;2023-05-07T21:29:31;6.60;;;5.13;;
59271;SDS011;45043;51.068;7.026;2023-05-07T21:32:32;5.53;;;5.03;;
59271;SDS011;45043;51.068;7.026;2023-05-07T21:35:32;7.40;;;6.67;;
59271;SDS011;45043;51.068;7.026;2023-05-07T21:38:34;6.90;;;6.20;;